Time;durP1;ratioP1;P1;durP2;ratioP2;P2;SDS_P1;SDS_P2;PMS_P1;PMS_P2;Temp;Humidity;BMP_temperature;BMP_pressure;BME280_temperature;BME280_humidity;BME280_pressure;Samples;Min_cycle;Max_cycle;Signal;HPM_P1;HPM_P2
2021/01/24 00:00:34;;;;;;;18.23;12.00;;;;;;;3.80;77.37;98445.22;1787122;80;25693;-56
2021/01/24 00:03:04;;;;;;;18.92;13.28;;;;;;;3.73;77.29;98440.30;1787134;80;25626;-53
2021/01/24 00:05:31;;;;;;;18.55;11.78;;;;;;;3.70;77.41;98440.92;1787199;80;25807;-54
2021/01/24 00:07:58;;;;;;;16.15;10.68;;;;;;;3.65;77.23;98440.27;1787122;80;25681;-55
2021/01/24 00:10:25;;;;;;;18.02;11.57;;;;;;;3.60;77.21;98444.42;1787134;80;25654;-56
2021/01/24 00:12:52;;;;;;;17.92;11.75;;;;;;;3.55;77.35;98447.45;1786893;80;25701;-56
2021/01/24 00:15:18;;;;;;;19.70;11.63;;;;;;;3.52;77.43;98440.59;1787223;80;25713;-55
2021/01/24 00:17:45;;;;;;;26.15;14.43;;;;;;;3.49;77.30;98445.21;1787060;80;25713;-56
2021/01/24 00:20:13;;;;;;;24.65;15.10;;;;;;;3.43;77.31;98447.23;1787235;80;25662;-54
2021/01/24 00:22:39;;;;;;;19.90;11.88;;;;;;;3.39;77.25;98444.95;1787104;80;25579;-53
2021/01/24 00:25:08;;;;;;;15.15;10.35;;;;;;;3.32;76.97;98437.36;1787183;80;25584;-57
2021/01/24 00:27:34;;;;;;;15.63;10.20;;;;;;;3.24;76.90;98435.42;1787120;80;25650;-54
2021/01/24 00:30:04;;;;;;;14.43;10.40;;;;;;;3.20;76.88;98432.32;1787254;80;25903;-54
2021/01/24 00:32:30;;;;;;;;;;;;;;;3.13;76.80;98426.07;1789705;80;25682;-55
2021/01/24 00:34:57;;;;;;;16.05;10.35;;;;;;;3.07;76.80;98433.98;1787093;80;25705;-53
2021/01/24 00:37:24;;;;;;;21.17;14.33;;;;;;;3.02;76.93;98434.11;1787126;80;25640;-49
2021/01/24 00:39:51;;;;;;;19.30;13.90;;;;;;;2.97;77.03;98435.80;1787108;80;25557;-49
2021/01/24 00:42:18;;;;;;;21.62;13.72;;;;;;;2.96;77.07;98449.45;1787174;80;26425;-54
2021/01/24 00:44:45;;;;;;;16.67;10.88;;;;;;;2.94;77.20;98444.41;1786826;80;25601;-58
2021/01/24 00:47:14;;;;;;;16.37;9.73;;;;;;;2.92;77.19;98437.25;1786642;80;25654;-61
2021/01/24 00:49:40;;;;;;;16.42;10.68;;;;;;;2.90;77.39;98442.11;1786853;80;25579;-62
2021/01/24 00:52:07;;;;;;;20.30;11.20;;;;;;;2.92;77.61;98437.25;1786860;80;25637;-60
2021/01/24 00:54:34;;;;;;;17.65;11.65;;;;;;;2.92;77.81;98434.58;1786471;80;27135;-60
2021/01/24 00:57:01;;;;;;;25.43;13.65;;;;;;;2.92;77.72;98439.14;1786770;80;25574;-59
2021/01/24 00:59:28;;;;;;;22.80;12.73;;;;;;;2.91;77.87;98436.21;1786868;80;25602;-60
2021/01/24 01:01:54;;;;;;;19.87;12.37;;;;;;;2.91;77.85;98433.02;1786628;80;25710;-59
2021/01/24 01:04:21;;;;;;;19.07;11.55;;;;;;;2.88;77.86;98425.61;1786871;80;25602;-60
2021/01/24 01:06:50;;;;;;;15.35;11.00;;;;;;;2.88;77.98;98424.80;1786939;80;27472;-60
2021/01/24 01:09:17;;;;;;;18.77;12.37;;;;;;;2.88;77.96;98424.80;1786804;80;25729;-58
2021/01/24 01:11:44;;;;;;;16.35;12.50;;;;;;;2.86;77.96;98423.79;1786932;80;26353;-59
2021/01/24 01:14:11;;;;;;;22.37;12.75;;;;;;;2.85;78.05;98427.55;1786623;80;25764;-59
2021/01/24 01:16:38;;;;;;;19.40;12.58;;;;;;;2.84;78.22;98413.16;1786681;80;25667;-58
2021/01/24 01:19:04;;;;;;;19.00;11.90;;;;;;;2.83;78.28;98405.70;1765104;79;27376;-58
2021/01/24 01:21:31;;;;;;;22.95;12.50;;;;;;;2.83;78.33;98397.69;1754570;80;26017;-58
2021/01/24 01:23:58;;;;;;;23.05;11.88;;;;;;;2.79;78.19;98400.18;1755113;80;25636;-59
2021/01/24 01:26:24;;;;;;;25.65;14.33;;;;;;;2.77;78.25;98397.55;1754391;80;26052;-60
2021/01/24 01:28:51;;;;;;;37.67;17.05;;;;;;;2.74;78.29;98396.82;1754803;80;25453;-57
2021/01/24 01:31:18;;;;;;;43.68;20.88;;;;;;;2.71;78.27;98388.89;1755835;81;26352;-57
2021/01/24 01:33:45;;;;;;;29.92;16.27;;;;;;;2.69;78.28;98393.75;1755663;81;25577;-58
2021/01/24 01:36:11;;;;;;;23.87;14.68;;;;;;;2.65;78.21;98387.97;1756522;81;25516;-59
2021/01/24 01:38:38;;;;;;;20.37;14.15;;;;;;;2.63;78.32;98388.83;1756821;81;25549;-57
2021/01/24 01:41:05;;;;;;;19.95;14.30;;;;;;;2.58;78.40;98379.83;1756978;81;25560;-58
2021/01/24 01:43:32;;;;;;;18.67;13.43;;;;;;;2.56;78.29;98379.91;1756739;81;26169;-58
2021/01/24 01:45:59;;;;;;;17.90;12.40;;;;;;;2.51;78.30;98374.12;1756873;81;25336;-57
2021/01/24 01:48:26;;;;;;;19.50;12.70;;;;;;;2.48;78.35;98371.27;1756836;81;25482;-58
2021/01/24 01:50:56;;;;;;;19.37;13.00;;;;;;;2.44;78.39;98367.09;1756825;81;25413;-56
2021/01/24 01:53:24;;;;;;;24.60;13.95;;;;;;;2.40;78.42;98368.24;1756904;81;25570;-54
2021/01/24 01:55:52;;;;;;;20.00;12.80;;;;;;;2.38;78.46;98372.28;1756773;81;25728;-43
2021/01/24 01:58:19;;;;;;;20.00;12.40;;;;;;;2.37;78.55;98378.73;1756807;81;25606;-47
2021/01/24 02:00:49;;;;;;;19.52;12.98;;;;;;;2.34;78.65;98380.66;1756928;81;25661;-55
2021/01/24 02:03:58;;;;;;;19.95;12.43;;;;;;;2.33;78.72;98385.19;1756657;81;25569;-52
2021/01/24 02:06:39;;;;;;;19.48;12.50;;;;;;;2.32;78.74;98388.19;1756892;81;25361;-54
2021/01/24 02:09:19;;;;;;;20.50;12.75;;;;;;;2.30;78.78;98388.48;1746765;81;27132;-52
2021/01/24 02:11:51;;;;;;;19.23;13.05;;;;;;;2.28;78.83;98389.30;1756851;81;25612;-52
2021/01/24 02:14:26;;;;;;;19.77;12.45;;;;;;;2.27;78.93;98383.73;1756726;81;25541;-53
2021/01/24 02:16:55;;;;;;;20.02;13.40;;;;;;;2.27;78.81;98381.62;1756864;81;25361;-54
2021/01/24 02:19:36;;;;;;;21.70;14.50;;;;;;;2.26;78.90;98381.37;1757127;81;25411;-55
2021/01/24 02:22:03;;;;;;;21.73;14.63;;;;;;;2.27;79.35;98377.07;1756909;81;25719;-54
2021/01/24 02:24:38;;;;;;;24.40;15.35;;;;;;;2.29;79.41;98387.45;1756677;81;25491;-51
2021/01/24 02:27:22;;;;;;;20.92;14.60;;;;;;;2.29;79.34;98395.45;1756846;81;25382;-53
2021/01/24 02:30:20;;;;;;;20.68;13.78;;;;;;;2.27;79.26;98393.08;1756850;81;25366;-53
2021/01/24 02:32:51;;;;;;;22.10;13.62;;;;;;;2.24;79.21;98397.67;1756879;81;25347;-54
2021/01/24 02:35:18;;;;;;;19.82;12.93;;;;;;;2.21;79.26;98392.93;1756838;81;25718;-54
2021/01/24 02:37:46;;;;;;;19.60;12.82;;;;;;;2.21;79.38;98392.41;1756802;81;25342;-50
2021/01/24 02:40:13;;;;;;;19.32;11.40;;;;;;;2.18;79.45;98390.34;1756813;81;25503;-55
2021/01/24 02:42:41;;;;;;;19.30;12.78;;;;;;;2.18;79.52;98389.52;1756809;81;25608;-54
2021/01/24 02:45:09;;;;;;;20.88;13.55;;;;;;;2.16;79.58;98387.19;1756746;81;25379;-54
2021/01/24 02:47:38;;;;;;;20.25;12.95;;;;;;;2.16;79.66;98387.70;1756806;81;25719;-55
2021/01/24 02:50:08;;;;;;;17.77;12.20;;;;;;;2.15;79.72;98384.81;1756964;81;25501;-52
2021/01/24 02:52:35;;;;;;;20.72;13.72;;;;;;;2.14;79.74;98392.00;1756896;81;34676;-53
2021/01/24 02:55:05;;;;;;;22.58;13.85;;;;;;;2.15;79.85;98388.26;1756660;81;25431;-53
2021/01/24 02:57:32;;;;;;;20.40;13.72;;;;;;;2.17;79.94;98386.08;1756711;81;25683;-54
2021/01/24 02:59:59;;;;;;;16.93;12.03;;;;;;;2.19;80.04;98393.23;1756874;81;26376;-52
2021/01/24 03:02:26;;;;;;;19.23;13.70;;;;;;;2.20;80.11;98401.48;1756756;81;25434;-53
2021/01/24 03:04:52;;;;;;;21.68;12.85;;;;;;;2.21;79.95;98401.75;1756750;81;25592;-53
2021/01/24 03:07:19;;;;;;;19.90;13.98;;;;;;;2.22;79.72;98407.31;1756807;81;25559;-44
2021/01/24 03:09:46;;;;;;;21.02;13.10;;;;;;;2.22;79.81;98415.86;1756893;81;25564;-55
2021/01/24 03:12:14;;;;;;;20.00;13.25;;;;;;;2.20;79.85;98404.70;1756696;81;26168;-54
2021/01/24 03:14:41;;;;;;;18.80;12.20;;;;;;;2.16;79.87;98397.86;1756738;81;25619;-53
2021/01/24 03:17:10;;;;;;;19.30;12.65;;;;;;;2.18;79.99;98398.86;1756787;81;25950;-56
2021/01/24 03:19:38;;;;;;;18.55;12.05;;;;;;;2.19;80.04;98395.12;1756679;81;25755;-55
2021/01/24 03:22:06;;;;;;;19.48;12.88;;;;;;;2.20;80.16;98396.70;1756952;81;25413;-54
2021/01/24 03:24:33;;;;;;;19.75;13.43;;;;;;;2.21;80.21;98391.59;1756720;81;25809;-54
2021/01/24 03:27:00;;;;;;;20.95;13.78;;;;;;;2.22;80.22;98397.19;1756742;81;25561;-54
2021/01/24 03:29:27;;;;;;;22.13;13.75;;;;;;;2.23;80.13;98399.56;1733200;81;25565;-55
2021/01/24 03:31:54;;;;;;;21.27;13.48;;;;;;;2.23;80.12;98394.75;1756823;81;25600;-55
2021/01/24 03:34:25;;;;;;;19.55;13.28;;;;;;;2.22;80.05;98393.19;1756511;81;25623;-50
2021/01/24 03:36:54;;;;;;;20.37;13.95;;;;;;;2.20;80.12;98390.03;1756555;81;25790;-55
2021/01/24 03:39:21;;;;;;;18.87;13.40;;;;;;;2.20;80.22;98390.82;1756684;81;25630;-47
2021/01/24 03:41:48;;;;;;;24.80;13.83;;;;;;;2.16;80.24;98378.37;1756751;81;25347;-54
2021/01/24 03:44:15;;;;;;;25.40;14.87;;;;;;;2.20;80.28;98382.03;1755791;81;25503;-53
2021/01/24 03:46:42;;;;;;;21.85;14.05;;;;;;;2.21;80.38;98378.27;1729230;82;25518;-54
2021/01/24 03:49:09;;;;;;;22.05;15.20;;;;;;;2.21;80.32;98376.92;1729242;83;26364;-56
2021/01/24 03:51:36;;;;;;;20.55;14.47;;;;;;;2.19;80.32;98371.89;1729088;82;25652;-55
2021/01/24 03:54:02;;;;;;;25.10;14.80;;;;;;;2.18;80.28;98366.33;1704330;84;25582;-55
2021/01/24 03:56:29;;;;;;;25.35;16.07;;;;;;;2.19;80.34;98362.55;1702768;84;25383;-53
2021/01/24 03:58:56;;;;;;;24.90;15.72;;;;;;;2.20;80.38;98364.70;1691576;84;25492;-54
2021/01/24 04:01:22;;;;;;;23.85;14.93;;;;;;;2.19;80.40;98364.44;1704266;84;25724;-53
2021/01/24 04:03:49;;;;;;;26.93;15.30;;;;;;;2.18;80.34;98369.52;1680677;84;25482;-44
2021/01/24 04:06:16;;;;;;;26.33;17.32;;;;;;;2.19;80.37;98376.44;1691555;84;25380;-55
2021/01/24 04:08:43;;;;;;;26.48;16.37;;;;;;;2.18;80.34;98378.85;1704385;84;25398;-55
2021/01/24 04:11:09;;;;;;;24.67;15.35;;;;;;;2.16;80.32;98373.84;1702917;84;25416;-53
2021/01/24 04:13:36;;;;;;;24.95;16.23;;;;;;;2.16;80.41;98368.52;1691568;84;26208;-54
2021/01/24 04:16:04;;;;;;;27.00;16.42;;;;;;;2.15;80.43;98361.59;1703922;84;25515;-55
2021/01/24 04:18:31;;;;;;;21.55;14.45;;;;;;;2.17;80.50;98363.95;1676061;85;25409;-53
2021/01/24 04:20:57;;;;;;;24.47;14.93;;;;;;;2.17;80.50;98367.95;1702533;84;25416;-47
2021/01/24 04:23:24;;;;;;;24.57;15.98;;;;;;;2.18;80.49;98367.66;1691559;84;25641;-56
2021/01/24 04:25:51;;;;;;;23.02;15.53;;;;;;;2.17;80.44;98356.73;1704379;84;25935;-54
2021/01/24 04:28:17;;;;;;;23.62;15.00;;;;;;;2.18;80.50;98360.19;1702676;84;25633;-55
2021/01/24 04:30:44;;;;;;;25.32;15.53;;;;;;;2.19;80.55;98357.22;1691532;84;25648;-54
2021/01/24 04:33:11;;;;;;;23.02;14.65;;;;;;;2.21;80.57;98355.59;1704144;84;25383;-54
2021/01/24 04:35:37;;;;;;;25.95;16.27;;;;;;;2.21;80.57;98351.58;1675564;85;25651;-54
2021/01/24 04:38:04;;;;;;;23.30;15.05;;;;;;;2.21;80.61;98356.40;1702907;84;26958;-54
2021/01/24 04:40:31;;;;;;;21.85;14.80;;;;;;;2.21;80.63;98360.39;1691506;84;25680;-55
2021/01/24 04:42:58;;;;;;;22.87;13.45;;;;;;;2.22;80.61;98351.28;1676066;85;25386;-48
2021/01/24 04:45:25;;;;;;;23.60;14.78;;;;;;;2.23;80.56;98346.73;1711979;82;25479;-54
2021/01/24 04:47:53;;;;;;;23.45;14.13;;;;;;;2.24;80.56;98353.10;1707578;84;25409;-54
2021/01/24 04:50:21;;;;;;;21.02;12.45;;;;;;;2.24;80.59;98357.66;1756723;81;27071;-55
2021/01/24 04:52:48;;;;;;;17.42;12.82;;;;;;;2.23;80.48;98354.21;1756433;81;25376;-51
2021/01/24 04:55:15;;;;;;;18.73;13.38;;;;;;;2.23;80.49;98352.88;1756639;81;25349;-55
2021/01/24 04:57:42;;;;;;;20.17;13.62;;;;;;;2.23;80.43;98358.21;1733282;81;25506;-55
2021/01/24 05:00:11;;;;;;;16.97;12.40;;;;;;;2.23;80.45;98346.20;1756682;81;25367;-53
2021/01/24 05:02:38;;;;;;;16.55;12.82;;;;;;;2.23;80.46;98343.54;1756857;81;26733;-53
2021/01/24 05:05:06;;;;;;;18.60;13.40;;;;;;;2.25;80.49;98348.58;1756689;81;25730;-55
2021/01/24 05:07:32;;;;;;;19.67;12.82;;;;;;;2.25;80.42;98343.24;1756840;81;25588;-55
2021/01/24 05:09:59;;;;;;;20.15;13.08;;;;;;;2.24;80.44;98338.98;1733351;81;25383;-54
2021/01/24 05:12:29;;;;;;;18.25;12.03;;;;;;;2.24;80.45;98338.43;1756859;81;25591;-55
2021/01/24 05:17:34;;;;;;;18.90;12.70;;;;;;;2.32;80.49;98336.16;1848770;76;34522;-55
2021/01/24 05:20:01;;;;;;;22.52;13.83;;;;;;;2.23;80.49;98327.53;1818726;78;25542;-41
2021/01/24 05:22:28;;;;;;;15.78;11.70;;;;;;;2.23;80.47;98321.39;1787146;78;26224;-50
2021/01/24 05:24:55;;;;;;;19.52;12.75;;;;;;;2.22;80.42;98323.28;1818669;78;25534;-56
2021/01/24 05:27:25;;;;;;;17.98;12.25;;;;;;;2.23;80.43;98321.39;1818464;78;26265;-56
2021/01/24 05:29:52;;;;;;;19.27;11.45;;;;;;;2.22;80.34;98320.61;1818781;78;25534;-58
2021/01/24 05:32:18;;;;;;;19.30;12.20;;;;;;;2.21;80.33;98324.38;1818776;78;25279;-47
2021/01/24 05:34:49;;;;;;;15.75;11.18;;;;;;;2.20;80.31;98321.46;1818634;78;26193;-56
2021/01/24 05:37:14;;;;;;;17.60;11.48;;;;;;;2.21;80.32;98324.38;1818607;78;25378;-55
2021/01/24 05:39:43;;;;;;;18.82;12.58;;;;;;;2.20;80.29;98324.69;1818420;78;25626;-56
2021/01/24 05:42:12;;;;;;;20.30;12.00;;;;;;;2.18;80.34;98324.98;1818846;78;25451;-56
2021/01/24 05:44:39;;;;;;;16.10;11.45;;;;;;;2.17;80.32;98320.73;1818667;78;25520;-55
2021/01/24 05:47:06;;;;;;;17.75;11.83;;;;;;;2.16;80.42;98316.50;1818706;78;26123;-51
2021/01/24 05:49:33;;;;;;;19.42;12.20;;;;;;;2.16;80.44;98314.36;1818617;78;25313;-56
2021/01/24 05:52:11;;;;;;;19.37;12.53;;;;;;;2.14;80.48;98307.98;1818583;78;25460;-41
2021/01/24 05:54:47;;;;;;;16.87;13.28;;;;;;;2.13;80.52;98308.28;1818692;78;25380;-57
2021/01/24 05:57:16;;;;;;;20.97;14.30;;;;;;;2.12;80.60;98307.50;1818696;78;25396;-40
2021/01/24 05:59:57;;;;;;;17.67;13.68;;;;;;;2.12;80.71;98306.17;1818855;78;25687;-55
2021/01/24 06:02:27;;;;;;;22.10;13.68;;;;;;;2.11;80.81;98310.47;1818525;78;25559;-50
2021/01/24 06:04:55;;;;;;;19.80;12.03;;;;;;;2.11;80.87;98310.47;1818677;78;25554;-47
2021/01/24 06:07:22;;;;;;;19.40;12.15;;;;;;;2.11;80.88;98321.14;1818570;78;25595;-44
2021/01/24 06:09:50;;;;;;;21.00;13.18;;;;;;;2.09;80.96;98319.32;1818783;78;25631;-56
2021/01/24 06:12:20;;;;;;;22.00;13.60;;;;;;;2.08;80.96;98326.55;1818618;78;25899;-54
2021/01/24 06:14:49;;;;;;;24.87;15.03;;;;;;;2.07;81.04;98328.95;1818530;78;25585;-50
2021/01/24 06:17:38;;;;;;;21.70;14.23;;;;;;;2.05;81.09;98329.80;1818632;77;25534;-55
2021/01/24 06:20:08;;;;;;;22.75;14.30;;;;;;;2.03;81.17;98330.66;1818879;78;25532;-54
2021/01/24 06:23:10;;;;;;;20.77;14.87;;;;;;;2.01;81.18;98332.28;1818542;78;25567;-55
2021/01/24 06:25:44;;;;;;;23.77;15.10;;;;;;;1.99;81.27;98337.66;1817814;78;26425;-51
2021/01/24 06:28:25;;;;;;;21.02;13.83;;;;;;;1.99;81.39;98334.99;1818073;78;25346;-52
2021/01/24 06:30:53;;;;;;;23.30;14.95;;;;;;;1.98;81.46;98334.21;1818160;78;25437;-55
2021/01/24 06:33:23;;;;;;;21.05;14.28;;;;;;;1.97;81.48;98327.84;1818046;78;25574;-41
2021/01/24 06:35:59;;;;;;;24.80;13.83;;;;;;;1.96;81.54;98332.40;1818050;78;25612;-41
2021/01/24 06:38:30;;;;;;;23.12;14.65;;;;;;;1.94;81.61;98329.77;1818180;78;26567;-55
2021/01/24 06:40:59;;;;;;;23.05;15.08;;;;;;;1.94;81.65;98331.10;1818090;78;25360;-53
2021/01/24 06:43:37;;;;;;;25.48;15.90;;;;;;;1.93;81.73;98332.98;1817949;78;25495;-56
2021/01/24 06:46:05;;;;;;;24.82;14.87;;;;;;;1.93;81.79;98333.55;1818076;78;25306;-40
2021/01/24 06:48:47;;;;;;;24.82;15.68;;;;;;;1.91;81.83;98333.84;1818074;78;25587;-55
2021/01/24 06:51:41;;;;;;;24.02;15.50;;;;;;;1.88;81.81;98334.43;1817480;78;26327;-54
2021/01/24 06:54:27;;;;;;;23.55;15.78;;;;;;;1.85;81.89;98329.14;1817913;78;25371;-51
2021/01/24 06:57:06;;;;;;;31.93;19.40;;;;;;;1.84;81.94;98328.13;1817865;78;25591;-50
2021/01/24 06:59:33;;;;;;;29.23;17.50;;;;;;;1.84;82.00;98325.46;1818241;78;25548;-41
2021/01/24 07:02:25;;;;;;;26.52;16.57;;;;;;;1.82;82.12;98315.62;1818054;78;25328;-50
2021/01/24 07:05:24;;;;;;;23.47;16.15;;;;;;;1.80;82.02;98313.25;1817970;78;26931;-40
2021/01/24 07:07:53;;;;;;;24.23;15.15;;;;;;;1.80;82.13;98311.92;1818134;78;25618;-45
2021/01/24 07:10:40;;;;;;;26.70;17.20;;;;;;;1.78;82.19;98307.98;1818069;78;25573;-52
2021/01/24 07:13:31;;;;;;;25.82;16.42;;;;;;;1.78;82.33;98310.66;1802395;78;25543;-47
2021/01/24 07:16:01;;;;;;;29.02;17.15;;;;;;;1.77;82.39;98304.55;1802463;78;25488;-53
2021/01/24 07:18:44;;;;;;;31.70;18.05;;;;;;;1.78;82.39;98302.66;1817938;78;26875;-46
2021/01/24 07:21:12;;;;;;;26.87;16.82;;;;;;;1.77;82.37;98299.20;1818094;78;25331;-42
2021/01/24 07:23:40;;;;;;;27.80;18.85;;;;;;;1.76;82.30;98294.95;1817949;78;25571;-53
2021/01/24 07:26:10;;;;;;;27.77;16.97;;;;;;;1.76;82.41;98300.28;1817899;78;25534;-41
2021/01/24 07:28:37;;;;;;;29.40;18.90;;;;;;;1.74;82.45;98298.47;1818176;78;25512;-53
2021/01/24 07:31:06;;;;;;;33.45;18.50;;;;;;;1.75;82.51;98297.91;1817923;78;25679;-52
2021/01/24 07:33:32;;;;;;;32.90;20.30;;;;;;;1.75;82.51;98299.25;1818177;78;25646;-45
2021/01/24 07:36:05;;;;;;;31.48;19.75;;;;;;;1.75;82.64;98292.59;1817954;78;25475;-55
2021/01/24 07:38:32;;;;;;;33.18;19.77;;;;;;;1.74;82.61;98290.47;1817885;78;25623;-43
2021/01/24 07:41:00;;;;;;;31.93;20.17;;;;;;;1.73;82.62;98290.22;1818024;78;25342;-40
2021/01/24 07:43:28;;;;;;;32.73;19.52;;;;;;;1.74;82.76;98290.47;1818053;78;25690;-53
2021/01/24 07:45:55;;;;;;;34.73;20.92;;;;;;;1.76;82.87;98288.84;1817846;78;25510;-39
2021/01/24 07:48:24;;;;;;;32.93;20.25;;;;;;;1.77;83.01;98289.07;1817987;78;25317;-41
2021/01/24 07:50:50;;;;;;;36.15;21.45;;;;;;;1.79;83.07;98274.38;1817949;78;25538;-55
2021/01/24 07:53:19;;;;;;;46.83;20.62;;;;;;;1.83;83.10;98275.33;1817892;78;25511;-42
2021/01/24 07:55:46;;;;;;;31.00;19.73;;;;;;;1.87;83.17;98272.85;1817894;78;26745;-50
2021/01/24 07:58:14;;;;;;;35.65;21.02;;;;;;;1.90;83.15;98268.81;1817852;78;25618;-40
2021/01/24 08:00:41;;;;;;;34.08;20.10;;;;;;;1.92;83.13;98270.07;1817855;78;25538;-54
2021/01/24 08:03:08;;;;;;;32.98;19.82;;;;;;;1.94;83.08;98277.77;1817652;78;25568;-54
2021/01/24 08:05:35;;;;;;;32.95;20.05;;;;;;;1.96;83.09;98270.26;1818004;78;25580;-45
2021/01/24 08:08:02;;;;;;;33.53;20.30;;;;;;;1.99;83.08;98264.33;1817892;78;26328;-41
2021/01/24 08:10:32;;;;;;;31.37;20.12;;;;;;;2.00;83.12;98262.70;1817811;78;25559;-54
2021/01/24 08:13:00;;;;;;;32.78;20.68;;;;;;;2.01;83.12;98268.28;1817867;78;25597;-43
2021/01/24 08:15:28;;;;;;;29.77;20.25;;;;;;;2.04;83.12;98266.35;1814519;78;25582;-49
2021/01/24 08:17:59;;;;;;;27.98;18.37;;;;;;;2.07;83.22;98266.84;1789586;80;25580;-54
2021/01/24 08:20:28;;;;;;;30.23;18.70;;;;;;;2.08;83.23;98275.06;1790669;80;25786;-51
2021/01/24 08:22:56;;;;;;;32.83;20.15;;;;;;;2.10;83.39;98267.02;1791586;80;25527;-40
2021/01/24 08:25:23;;;;;;;30.65;19.55;;;;;;;2.14;83.43;98267.98;1791516;80;25520;-55
2021/01/24 08:27:50;;;;;;;30.37;18.42;;;;;;;2.17;83.42;98274.59;1762751;80;25567;-48
2021/01/24 08:30:19;;;;;;;28.30;17.87;;;;;;;2.21;83.35;98272.37;1791569;80;25591;-54
2021/01/24 08:32:46;;;;;;;30.00;18.98;;;;;;;2.24;83.26;98261.06;1762842;80;25718;-53
2021/01/24 08:35:14;;;;;;;32.28;19.57;;;;;;;2.28;83.19;98261.80;1762431;80;25567;-52
2021/01/24 08:37:41;;;;;;;34.38;20.52;;;;;;;2.31;83.23;98255.31;1790673;78;25736;-55
2021/01/24 08:40:10;;;;;;;30.23;20.23;;;;;;;2.33;83.14;98246.45;1791387;80;25481;-53
2021/01/24 08:42:48;;;;;;;30.75;18.70;;;;;;;2.33;83.02;98241.66;1791472;80;25628;-53
2021/01/24 08:45:19;;;;;;;30.35;19.52;;;;;;;2.34;83.08;98245.37;1791182;80;26956;-49
2021/01/24 08:47:53;;;;;;;27.87;18.00;;;;;;;2.38;83.15;98244.21;1791426;80;25632;-54
2021/01/24 08:50:20;;;;;;;26.05;16.85;;;;;;;2.40;83.15;98250.83;1790573;80;25658;-50
2021/01/24 08:52:55;;;;;;;25.48;17.23;;;;;;;2.42;83.12;98244.64;1791347;80;25799;-53
2021/01/24 08:55:22;;;;;;;27.45;17.80;;;;;;;2.45;83.07;98250.45;1791382;80;25598;-55
2021/01/24 08:57:49;;;;;;;28.05;18.52;;;;;;;2.46;83.07;98252.04;1791428;80;27055;-51
2021/01/24 09:00:17;;;;;;;27.75;17.50;;;;;;;2.47;83.10;98249.59;1791437;80;25320;-54
2021/01/24 09:02:45;;;;;;;25.50;17.20;;;;;;;2.47;83.01;98242.40;1791175;80;25429;-56
2021/01/24 09:05:30;;;;;;;30.77;18.62;;;;;;;2.49;83.07;98246.10;1791327;80;25378;-53
2021/01/24 09:07:57;;;;;;;29.42;18.10;;;;;;;2.51;83.00;98253.25;1791419;80;25604;-52
2021/01/24 09:10:28;;;;;;;30.45;19.17;;;;;;;2.49;82.87;98250.10;1791480;80;25751;-54
2021/01/24 09:13:04;;;;;;;27.37;18.02;;;;;;;2.47;82.82;98245.06;1791409;80;25513;-46
2021/01/24 09:15:33;;;;;;;27.55;18.07;;;;;;;2.42;82.65;98235.86;1791371;80;25391;-54
2021/01/24 09:18:02;;;;;;;29.80;19.50;;;;;;;2.39;82.78;98239.91;1793116;79;25538;-53
2021/01/24 09:20:30;;;;;;;27.58;18.73;;;;;;;2.39;82.93;98230.56;1793859;79;25646;-53
2021/01/24 09:22:56;;;;;;;26.05;17.00;;;;;;;2.39;82.94;98226.56;1793693;79;25856;-54
2021/01/24 09:25:25;;;;;;;28.12;18.70;;;;;;;2.39;82.99;98231.13;1793761;79;25639;-54
2021/01/24 09:27:51;;;;;;;32.08;17.67;;;;;;;2.39;83.06;98215.11;1793556;79;25587;-53
2021/01/24 09:30:19;;;;;;;28.05;18.45;;;;;;;2.40;83.12;98216.67;1793824;79;25655;-53
2021/01/24 09:32:47;;;;;;;29.42;18.10;;;;;;;2.37;83.01;98219.41;1793958;79;25690;-53
2021/01/24 09:35:14;;;;;;;28.75;18.15;;;;;;;2.38;83.06;98211.67;1793655;79;27296;-58
2021/01/24 09:37:41;;;;;;;31.33;19.00;;;;;;;2.38;83.18;98206.85;1793628;79;25715;-44
2021/01/24 09:40:10;;;;;;;28.00;18.40;;;;;;;2.38;83.17;98209.00;1793816;79;25567;-58
2021/01/24 09:42:37;;;;;;;29.87;19.42;;;;;;;2.38;83.16;98207.66;1794056;79;25686;-58
2021/01/24 09:45:06;;;;;;;31.82;19.35;;;;;;;2.37;83.05;98202.07;1793801;79;25773;-54
2021/01/24 09:47:33;;;;;;;27.93;18.47;;;;;;;2.35;83.10;98200.27;1794124;79;26717;-58
2021/01/24 09:50:00;;;;;;;27.98;18.87;;;;;;;2.34;83.05;98205.91;1793531;79;25673;-44
2021/01/24 09:52:27;;;;;;;28.85;19.37;;;;;;;2.31;83.06;98207.84;1795013;78;25584;-56
2021/01/24 09:54:54;;;;;;;30.95;18.57;;;;;;;2.28;83.01;98193.22;1807294;78;25618;-48
2021/01/24 09:57:21;;;;;;;28.35;18.23;;;;;;;2.28;83.06;98201.22;1807229;79;25679;-46
2021/01/24 09:59:48;;;;;;;30.72;18.32;;;;;;;2.24;83.10;98195.70;1807163;79;26215;-51
2021/01/24 10:02:15;;;;;;;27.93;18.02;;;;;;;2.24;83.13;98198.38;1807154;79;25588;-49
2021/01/24 10:04:42;;;;;;;31.77;18.57;;;;;;;2.22;83.16;98192.56;1807413;79;26048;-50
2021/01/24 10:07:09;;;;;;;30.15;18.50;;;;;;;2.20;83.16;98191.30;1807559;79;26480;-55
2021/01/24 10:09:36;;;;;;;28.05;17.80;;;;;;;2.18;83.28;98182.80;1807516;79;26311;-48
2021/01/24 10:12:04;;;;;;;28.70;18.42;;;;;;;2.18;83.41;98184.13;1807546;79;26673;-52
2021/01/24 10:14:30;;;;;;;30.60;18.02;;;;;;;2.18;83.53;98185.47;1797128;77;25677;-52
2021/01/24 10:16:57;;;;;;;29.15;17.77;;;;;;;2.20;83.56;98188.64;1816204;78;25677;-48
2021/01/24 10:19:24;;;;;;;29.67;18.37;;;;;;;2.20;83.63;98188.09;1822087;77;26006;-44
2021/01/24 10:21:51;;;;;;;30.52;18.45;;;;;;;2.20;83.55;98194.75;1822109;78;25445;-50
2021/01/24 10:24:17;;;;;;;28.30;18.40;;;;;;;2.21;83.53;98197.67;1822338;78;26129;-49
2021/01/24 10:26:44;;;;;;;32.08;18.77;;;;;;;2.21;83.57;98191.53;1822359;78;25709;-53
2021/01/24 10:29:11;;;;;;;32.08;19.87;;;;;;;2.22;83.72;98192.56;1822055;78;25811;-55
2021/01/24 10:31:38;;;;;;;34.00;22.40;;;;;;;2.24;83.84;98190.92;1822375;78;25676;-52
2021/01/24 10:34:04;;;;;;;33.00;20.52;;;;;;;2.25;83.86;98189.84;1795089;78;25747;-53
2021/01/24 10:36:31;;;;;;;32.53;21.02;;;;;;;2.29;83.92;98192.13;1821915;78;25754;-55
2021/01/24 10:38:58;;;;;;;31.73;20.05;;;;;;;2.31;83.92;98186.50;1822104;78;25475;-51
2021/01/24 10:41:24;;;;;;;32.45;20.35;;;;;;;2.33;83.96;98181.08;1821977;78;25761;-51
2021/01/24 10:43:52;;;;;;;31.57;19.12;;;;;;;2.36;84.06;98175.69;1821814;78;25749;-52
2021/01/24 10:46:19;;;;;;;32.42;20.00;;;;;;;2.39;84.16;98164.41;1822419;78;25448;-52
2021/01/24 10:48:45;;;;;;;31.10;19.75;;;;;;;2.41;84.18;98163.00;1823476;78;26005;-45
2021/01/24 10:51:12;;;;;;;30.25;18.52;;;;;;;2.46;84.30;98154.08;1823018;78;25673;-53
2021/01/24 10:53:39;;;;;;;28.25;19.40;;;;;;;2.49;84.36;98148.14;1823383;78;25284;-48
2021/01/24 10:56:06;;;;;;;27.45;17.57;;;;;;;2.53;84.42;98149.64;1823255;78;25874;-52
2021/01/24 10:58:33;;;;;;;32.30;19.23;;;;;;;2.59;84.50;98139.86;1823400;78;25680;-53
2021/01/24 11:01:00;;;;;;;31.07;18.65;;;;;;;2.64;84.53;98133.59;1823490;78;25811;-52
2021/01/24 11:03:26;;;;;;;29.40;18.92;;;;;;;2.68;84.47;98137.77;1823476;78;26272;-50
2021/01/24 11:05:53;;;;;;;31.87;19.62;;;;;;;2.70;84.43;98131.01;1818480;78;25578;-46
2021/01/24 11:08:20;;;;;;;32.23;19.50;;;;;;;2.75;84.46;98132.76;1814304;78;25747;-45
2021/01/24 11:10:47;;;;;;;29.98;18.12;;;;;;;2.78;84.43;98132.15;1814220;78;25582;-54
2021/01/24 11:13:14;;;;;;;28.30;18.02;;;;;;;2.80;84.36;98124.05;1823547;78;27200;-45
2021/01/24 11:15:41;;;;;;;30.43;19.02;;;;;;;2.84;84.45;98121.55;1818603;78;25240;-53
2021/01/24 11:18:08;;;;;;;29.07;18.05;;;;;;;2.86;84.22;98125.24;1800376;78;25586;-50
2021/01/24 11:20:35;;;;;;;30.72;18.85;;;;;;;2.88;84.26;98121.70;1794609;78;25611;-51
2021/01/24 11:23:01;;;;;;;28.25;19.00;;;;;;;2.90;84.36;98106.19;1811918;78;25689;-50
2021/01/24 11:25:28;;;;;;;29.00;18.90;;;;;;;2.93;84.25;98110.34;1804090;78;25945;-55
2021/01/24 11:27:55;;;;;;;31.25;18.23;;;;;;;2.96;84.36;98103.58;1807488;78;25684;-54
2021/01/24 11:30:23;;;;;;;28.77;18.73;;;;;;;3.02;84.50;98098.90;1801665;78;25768;-49
2021/01/24 11:32:50;;;;;;;30.23;18.45;;;;;;;3.07;84.57;98102.20;1802699;79;25661;-53
2021/01/24 11:35:17;;;;;;;29.32;17.87;;;;;;;3.10;84.54;98106.92;1801938;78;25951;-49
2021/01/24 11:37:44;;;;;;;30.72;18.05;;;;;;;3.12;84.32;98103.38;1801381;79;25766;-51